sensor_id;sensor_type;location;lat;lon;timestamp;temperature;humidity
6664;DHT22;58749;48.022;10.922;2022-12-19T00:00:34;-0.20;99.90
6664;DHT22;58749;48.022;10.922;2022-12-19T00:03:02;-0.20;99.90
6664;DHT22;58749;48.022;10.922;2022-12-19T00:05:30;-0.30;99.90
6664;DHT22;58749;48.022;10.922;2022-12-19T00:08:02;-0.30;99.90
6664;DHT22;58749;48.022;10.922;2022-12-19T00:10:53;-0.30;99.90
6664;DHT22;58749;48.022;10.922;2022-12-19T00:13:22;-0.40;99.90
6664;DHT22;58749;48.022;10.922;2022-12-19T00:15:50;-0.30;99.90
6664;DHT22;58749;48.022;10.922;2022-12-19T00:18:18;-0.30;99.90
6664;DHT22;58749;48.022;10.922;2022-12-19T00:20:53;-0.20;99.90
6664;DHT22;58749;48.022;10.922;2022-12-19T00:23:22;-0.20;99.90
6664;DHT22;58749;48.022;10.922;2022-12-19T00:25:51;-0.20;99.90
6664;DHT22;58749;48.022;10.922;2022-12-19T00:28:19;-0.10;99.90
6664;DHT22;58749;48.022;10.922;2022-12-19T00:30:47;-0.10;99.90
6664;DHT22;58749;48.022;10.922;2022-12-19T00:33:17;0.00;99.90
6664;DHT22;58749;48.022;10.922;2022-12-19T00:35:45;0.00;99.90
6664;DHT22;58749;48.022;10.922;2022-12-19T00:38:13;-0.10;99.90
6664;DHT22;58749;48.022;10.922;2022-12-19T00:40:40;-0.10;99.90
6664;DHT22;58749;48.022;10.922;2022-12-19T00:43:10;-0.10;99.90
6664;DHT22;58749;48.022;10.922;2022-12-19T00:45:38;-0.10;99.90
6664;DHT22;58749;48.022;10.922;2022-12-19T00:48:06;-0.10;99.90
6664;DHT22;58749;48.022;10.922;2022-12-19T00:50:36;-0.10;99.90
6664;DHT22;58749;48.022;10.922;2022-12-19T00:53:04;-0.10;99.90
6664;DHT22;58749;48.022;10.922;2022-12-19T00:55:31;-0.20;99.90
6664;DHT22;58749;48.022;10.922;2022-12-19T00:57:59;-0.20;99.90
6664;DHT22;58749;48.022;10.922;2022-12-19T01:00:29;-0.20;99.90
6664;DHT22;58749;48.022;10.922;2022-12-19T01:02:57;-0.10;99.90
6664;DHT22;58749;48.022;10.922;2022-12-19T01:05:27;-0.10;99.90
6664;DHT22;58749;48.022;10.922;2022-12-19T01:07:56;-0.10;99.90
6664;DHT22;58749;48.022;10.922;2022-12-19T01:10:24;-0.20;99.90
6664;DHT22;58749;48.022;10.922;2022-12-19T01:12:52;-0.20;99.90
6664;DHT22;58749;48.022;10.922;2022-12-19T01:15:20;-0.20;99.90
6664;DHT22;58749;48.022;10.922;2022-12-19T01:17:49;-0.20;99.90
6664;DHT22;58749;48.022;10.922;2022-12-19T01:20:19;-0.20;99.90
6664;DHT22;58749;48.022;10.922;2022-12-19T01:22:56;-0.20;99.90
6664;DHT22;58749;48.022;10.922;2022-12-19T01:25:26;-0.20;99.90
6664;DHT22;58749;48.022;10.922;2022-12-19T01:27:54;-0.10;99.90
6664;DHT22;58749;48.022;10.922;2022-12-19T01:30:22;-0.10;99.90
6664;DHT22;58749;48.022;10.922;2022-12-19T01:32:51;-0.10;99.90
6664;DHT22;58749;48.022;10.922;2022-12-19T01:35:19;-0.10;99.90
6664;DHT22;58749;48.022;10.922;2022-12-19T01:37:48;-0.20;99.90
6664;DHT22;58749;48.022;10.922;2022-12-19T01:40:17;-0.20;99.90
6664;DHT22;58749;48.022;10.922;2022-12-19T01:42:46;-0.20;99.90
6664;DHT22;58749;48.022;10.922;2022-12-19T01:45:29;-0.20;99.90
6664;DHT22;58749;48.022;10.922;2022-12-19T01:48:12;-0.20;99.90
6664;DHT22;58749;48.022;10.922;2022-12-19T01:50:55;-0.20;99.90
6664;DHT22;58749;48.022;10.922;2022-12-19T01:53:30;-0.20;99.90
6664;DHT22;58749;48.022;10.922;2022-12-19T01:56:01;-0.10;99.90
6664;DHT22;58749;48.022;10.922;2022-12-19T01:58:39;-0.20;99.90
6664;DHT22;58749;48.022;10.922;2022-12-19T02:01:08;-0.20;99.90
6664;DHT22;58749;48.022;10.922;2022-12-19T02:03:38;-0.20;99.90
6664;DHT22;58749;48.022;10.922;2022-12-19T02:06:08;-0.20;99.90
6664;DHT22;58749;48.022;10.922;2022-12-19T02:08:36;-0.20;99.90
6664;DHT22;58749;48.022;10.922;2022-12-19T02:11:05;-0.20;99.90
6664;DHT22;58749;48.022;10.922;2022-12-19T02:13:33;-0.20;99.90
6664;DHT22;58749;48.022;10.922;2022-12-19T02:16:08;-0.20;99.90
6664;DHT22;58749;48.022;10.922;2022-12-19T02:18:47;-0.20;99.90
6664;DHT22;58749;48.022;10.922;2022-12-19T02:21:41;-0.30;99.90
6664;DHT22;58749;48.022;10.922;2022-12-19T02:30:13;-0.20;99.90
6664;DHT22;58749;48.022;10.922;2022-12-19T02:32:57;-0.30;99.90
6664;DHT22;58749;48.022;10.922;2022-12-19T02:35:31;-0.20;99.90
6664;DHT22;58749;48.022;10.922;2022-12-19T02:38:09;-0.20;99.90
6664;DHT22;58749;48.022;10.922;2022-12-19T02:40:41;-0.20;99.90
6664;DHT22;58749;48.022;10.922;2022-12-19T02:43:11;-0.20;99.90
6664;DHT22;58749;48.022;10.922;2022-12-19T02:45:41;-0.20;99.90
6664;DHT22;58749;48.022;10.922;2022-12-19T02:48:11;-0.20;99.90
6664;DHT22;58749;48.022;10.922;2022-12-19T02:50:46;-0.20;99.90
6664;DHT22;58749;48.022;10.922;2022-12-19T02:53:16;-0.20;99.90
6664;DHT22;58749;48.022;10.922;2022-12-19T02:55:53;-0.20;99.90
6664;DHT22;58749;48.022;10.922;2022-12-19T02:58:44;-0.20;99.90
6664;DHT22;58749;48.022;10.922;2022-12-19T03:01:23;-0.10;99.90
6664;DHT22;58749;48.022;10.922;2022-12-19T03:04:07;-0.10;99.90
6664;DHT22;58749;48.022;10.922;2022-12-19T03:06:41;-0.10;99.90
6664;DHT22;58749;48.022;10.922;2022-12-19T03:09:19;-0.10;99.90
6664;DHT22;58749;48.022;10.922;2022-12-19T03:11:51;-0.10;99.90
6664;DHT22;58749;48.022;10.922;2022-12-19T03:14:25;0.00;99.90
6664;DHT22;58749;48.022;10.922;2022-12-19T03:16:53;0.10;99.90
6664;DHT22;58749;48.022;10.922;2022-12-19T03:19:23;0.20;99.90
6664;DHT22;58749;48.022;10.922;2022-12-19T03:21:51;0.10;99.90
6664;DHT22;58749;48.022;10.922;2022-12-19T03:24:19;0.10;99.90
6664;DHT22;58749;48.022;10.922;2022-12-19T03:26:51;0.10;99.90
6664;DHT22;58749;48.022;10.922;2022-12-19T03:29:24;0.00;99.90
6664;DHT22;58749;48.022;10.922;2022-12-19T03:31:54;0.00;99.90
6664;DHT22;58749;48.022;10.922;2022-12-19T03:34:28;0.10;99.90
6664;DHT22;58749;48.022;10.922;2022-12-19T03:37:01;0.00;99.90
6664;DHT22;58749;48.022;10.922;2022-12-19T03:39:31;0.10;99.90
6664;DHT22;58749;48.022;10.922;2022-12-19T03:42:02;0.00;99.90
6664;DHT22;58749;48.022;10.922;2022-12-19T03:44:49;0.00;99.90
6664;DHT22;58749;48.022;10.922;2022-12-19T03:47:21;0.00;99.90
6664;DHT22;58749;48.022;10.922;2022-12-19T03:49:52;0.00;99.90
6664;DHT22;58749;48.022;10.922;2022-12-19T03:52:25;0.10;99.90
6664;DHT22;58749;48.022;10.922;2022-12-19T03:55:02;0.10;99.90
6664;DHT22;58749;48.022;10.922;2022-12-19T03:57:34;0.20;99.90
6664;DHT22;58749;48.022;10.922;2022-12-19T04:00:06;0.20;99.90
6664;DHT22;58749;48.022;10.922;2022-12-19T04:02:36;0.20;99.90
6664;DHT22;58749;48.022;10.922;2022-12-19T04:05:11;0.20;99.90
6664;DHT22;58749;48.022;10.922;2022-12-19T04:07:41;0.20;99.90
6664;DHT22;58749;48.022;10.922;2022-12-19T04:10:13;0.30;99.90
6664;DHT22;58749;48.022;10.922;2022-12-19T04:12:46;0.30;99.90
6664;DHT22;58749;48.022;10.922;2022-12-19T04:15:15;0.10;99.90
6664;DHT22;58749;48.022;10.922;2022-12-19T04:17:46;0.20;99.90
6664;DHT22;58749;48.022;10.922;2022-12-19T04:20:20;0.10;99.90
6664;DHT22;58749;48.022;10.922;2022-12-19T04:22:51;0.00;99.90
6664;DHT22;58749;48.022;10.922;2022-12-19T04:25:25;0.00;99.90
6664;DHT22;58749;48.022;10.922;2022-12-19T04:27:57;0.00;99.90
6664;DHT22;58749;48.022;10.922;2022-12-19T04:30:27;0.10;99.90
6664;DHT22;58749;48.022;10.922;2022-12-19T04:33:02;0.10;99.90
6664;DHT22;58749;48.022;10.922;2022-12-19T04:35:32;0.20;99.90
6664;DHT22;58749;48.022;10.922;2022-12-19T04:38:01;0.10;99.90
6664;DHT22;58749;48.022;10.922;2022-12-19T04:40:29;0.10;99.90
6664;DHT22;58749;48.022;10.922;2022-12-19T04:43:05;0.20;99.90
6664;DHT22;58749;48.022;10.922;2022-12-19T04:45:34;0.20;99.90
6664;DHT22;58749;48.022;10.922;2022-12-19T04:48:02;0.20;99.90
6664;DHT22;58749;48.022;10.922;2022-12-19T04:50:35;0.20;99.90
6664;DHT22;58749;48.022;10.922;2022-12-19T04:53:03;0.20;99.90
6664;DHT22;58749;48.022;10.922;2022-12-19T04:55:31;0.20;99.90
6664;DHT22;58749;48.022;10.922;2022-12-19T04:58:03;0.10;99.90
6664;DHT22;58749;48.022;10.922;2022-12-19T05:00:31;0.00;99.90
6664;DHT22;58749;48.022;10.922;2022-12-19T05:02:59;0.20;99.90
6664;DHT22;58749;48.022;10.922;2022-12-19T05:05:28;0.20;99.90
6664;DHT22;58749;48.022;10.922;2022-12-19T05:08:00;0.20;99.90
6664;DHT22;58749;48.022;10.922;2022-12-19T05:10:28;0.20;99.90
6664;DHT22;58749;48.022;10.922;2022-12-19T05:12:56;0.20;99.90
6664;DHT22;58749;48.022;10.922;2022-12-19T05:15:24;0.20;99.90
6664;DHT22;58749;48.022;10.922;2022-12-19T05:17:52;0.30;99.90
6664;DHT22;58749;48.022;10.922;2022-12-19T05:20:20;0.40;99.90
6664;DHT22;58749;48.022;10.922;2022-12-19T05:22:48;0.40;99.90
6664;DHT22;58749;48.022;10.922;2022-12-19T05:25:17;0.40;99.90
6664;DHT22;58749;48.022;10.922;2022-12-19T05:27:45;0.30;99.90
6664;DHT22;58749;48.022;10.922;2022-12-19T05:30:14;0.40;99.90
6664;DHT22;58749;48.022;10.922;2022-12-19T05:32:42;0.30;99.90
6664;DHT22;58749;48.022;10.922;2022-12-19T05:35:10;0.30;99.90
6664;DHT22;58749;48.022;10.922;2022-12-19T05:37:38;0.40;99.90
6664;DHT22;58749;48.022;10.922;2022-12-19T05:40:07;0.30;99.90
6664;DHT22;58749;48.022;10.922;2022-12-19T05:42:37;0.30;99.90
6664;DHT22;58749;48.022;10.922;2022-12-19T05:45:05;0.30;99.90
6664;DHT22;58749;48.022;10.922;2022-12-19T05:47:34;0.30;99.90
6664;DHT22;58749;48.022;10.922;2022-12-19T05:50:04;0.30;99.90
6664;DHT22;58749;48.022;10.922;2022-12-19T05:52:32;0.50;99.90
6664;DHT22;58749;48.022;10.922;2022-12-19T05:55:00;0.40;99.90
6664;DHT22;58749;48.022;10.922;2022-12-19T05:57:28;0.40;99.90
6664;DHT22;58749;48.022;10.922;2022-12-19T05:59:57;0.40;99.90
6664;DHT22;58749;48.022;10.922;2022-12-19T06:02:25;0.30;99.90
6664;DHT22;58749;48.022;10.922;2022-12-19T06:04:54;0.30;99.90
6664;DHT22;58749;48.022;10.922;2022-12-19T06:07:21;0.40;99.90
6664;DHT22;58749;48.022;10.922;2022-12-19T06:09:49;0.30;99.90
6664;DHT22;58749;48.022;10.922;2022-12-19T06:12:17;0.40;99.90
6664;DHT22;58749;48.022;10.922;2022-12-19T06:14:45;0.30;99.90
6664;DHT22;58749;48.022;10.922;2022-12-19T06:17:14;0.40;99.90
6664;DHT22;58749;48.022;10.922;2022-12-19T06:19:43;0.40;99.90
6664;DHT22;58749;48.022;10.922;2022-12-19T06:22:11;0.40;99.90
6664;DHT22;58749;48.022;10.922;2022-12-19T06:24:39;0.50;99.90
6664;DHT22;58749;48.022;10.922;2022-12-19T06:27:07;0.60;99.90
6664;DHT22;58749;48.022;10.922;2022-12-19T06:29:35;0.60;99.90
6664;DHT22;58749;48.022;10.922;2022-12-19T06:32:03;0.70;99.90
6664;DHT22;58749;48.022;10.922;2022-12-19T06:34:32;0.70;99.90
6664;DHT22;58749;48.022;10.922;2022-12-19T06:37:20;0.70;99.90
6664;DHT22;58749;48.022;10.922;2022-12-19T06:39:49;0.60;99.90
6664;DHT22;58749;48.022;10.922;2022-12-19T06:42:17;0.60;99.90
6664;DHT22;58749;48.022;10.922;2022-12-19T06:44:50;0.70;99.90
6664;DHT22;58749;48.022;10.922;2022-12-19T06:47:21;0.70;99.90
6664;DHT22;58749;48.022;10.922;2022-12-19T06:49:50;0.60;99.90
6664;DHT22;58749;48.022;10.922;2022-12-19T06:52:18;0.60;99.90
6664;DHT22;58749;48.022;10.922;2022-12-19T06:54:46;0.60;99.90
6664;DHT22;58749;48.022;10.922;2022-12-19T06:57:14;0.70;99.90
6664;DHT22;58749;48.022;10.922;2022-12-19T06:59:42;0.70;99.90
6664;DHT22;58749;48.022;10.922;2022-12-19T07:02:23;0.60;99.90
6664;DHT22;58749;48.022;10.922;2022-12-19T07:04:55;0.70;99.90
6664;DHT22;58749;48.022;10.922;2022-12-19T07:07:24;0.80;99.90
6664;DHT22;58749;48.022;10.922;2022-12-19T07:09:52;0.80;99.90
6664;DHT22;58749;48.022;10.922;2022-12-19T07:12:20;0.80;99.90
6664;DHT22;58749;48.022;10.922;2022-12-19T07:14:48;0.80;99.90
6664;DHT22;58749;48.022;10.922;2022-12-19T07:17:19;0.90;99.90
6664;DHT22;58749;48.022;10.922;2022-12-19T07:19:49;0.90;99.90
6664;DHT22;58749;48.022;10.922;2022-12-19T07:22:18;0.90;99.90
6664;DHT22;58749;48.022;10.922;2022-12-19T07:24:47;0.90;99.90
6664;DHT22;58749;48.022;10.922;2022-12-19T07:27:15;0.90;99.90
6664;DHT22;58749;48.022;10.922;2022-12-19T07:29:43;0.80;99.90
6664;DHT22;58749;48.022;10.922;2022-12-19T07:32:11;0.90;99.90
6664;DHT22;58749;48.022;10.922;2022-12-19T07:34:39;0.90;99.90
6664;DHT22;58749;48.022;10.922;2022-12-19T07:37:07;0.90;99.90
6664;DHT22;58749;48.022;10.922;2022-12-19T07:39:36;1.00;99.90
6664;DHT22;58749;48.022;10.922;2022-12-19T07:42:04;0.90;99.90
6664;DHT22;58749;48.022;10.922;2022-12-19T07:44:32;0.90;99.90
6664;DHT22;58749;48.022;10.922;2022-12-19T07:47:00;0.90;99.90
6664;DHT22;58749;48.022;10.922;2022-12-19T07:49:28;0.90;99.90
6664;DHT22;58749;48.022;10.922;2022-12-19T07:51:56;1.00;99.90
6664;DHT22;58749;48.022;10.922;2022-12-19T07:54:24;1.00;99.90
6664;DHT22;58749;48.022;10.922;2022-12-19T07:56:53;1.00;99.90
6664;DHT22;58749;48.022;10.922;2022-12-19T07:59:22;1.00;99.90
6664;DHT22;58749;48.022;10.922;2022-12-19T08:01:56;1.00;99.90
6664;DHT22;58749;48.022;10.922;2022-12-19T08:04:25;1.00;99.90
6664;DHT22;58749;48.022;10.922;2022-12-19T08:06:53;1.00;99.90
6664;DHT22;58749;48.022;10.922;2022-12-19T08:09:20;1.00;99.90
6664;DHT22;58749;48.022;10.922;2022-12-19T08:11:48;1.00;99.90
6664;DHT22;58749;48.022;10.922;2022-12-19T08:14:18;1.00;99.90
6664;DHT22;58749;48.022;10.922;2022-12-19T08:16:46;1.10;99.90
6664;DHT22;58749;48.022;10.922;2022-12-19T08:19:34;1.10;99.90
6664;DHT22;58749;48.022;10.922;2022-12-19T08:22:02;1.10;99.90
6664;DHT22;58749;48.022;10.922;2022-12-19T08:24:30;1.10;99.90
6664;DHT22;58749;48.022;10.922;2022-12-19T08:26:58;1.20;99.90
6664;DHT22;58749;48.022;10.922;2022-12-19T08:29:27;1.20;99.90
6664;DHT22;58749;48.022;10.922;2022-12-19T08:31:55;1.30;99.90
6664;DHT22;58749;48.022;10.922;2022-12-19T08:34:23;1.30;99.90
6664;DHT22;58749;48.022;10.922;2022-12-19T08:36:51;1.40;99.90
6664;DHT22;58749;48.022;10.922;2022-12-19T08:39:19;1.40;99.90
6664;DHT22;58749;48.022;10.922;2022-12-19T08:41:47;1.40;99.90
6664;DHT22;58749;48.022;10.922;2022-12-19T08:44:15;1.40;99.90
6664;DHT22;58749;48.022;10.922;2022-12-19T08:46:45;1.50;99.90
6664;DHT22;58749;48.022;10.922;2022-12-19T08:49:16;1.40;99.90
6664;DHT22;58749;48.022;10.922;2022-12-19T08:51:44;1.50;99.90
6664;DHT22;58749;48.022;10.922;2022-12-19T08:54:12;1.40;99.90
6664;DHT22;58749;48.022;10.922;2022-12-19T08:56:40;1.50;99.90
6664;DHT22;58749;48.022;10.922;2022-12-19T08:59:12;1.50;99.90
6664;DHT22;58749;48.022;10.922;2022-12-19T09:01:52;1.50;99.90
6664;DHT22;58749;48.022;10.922;2022-12-19T09:04:21;1.50;99.90
6664;DHT22;58749;48.022;10.922;2022-12-19T09:07:08;1.50;99.90
6664;DHT22;58749;48.022;10.922;2022-12-19T09:09:41;1.60;99.90
6664;DHT22;58749;48.022;10.922;2022-12-19T09:12:11;1.50;99.90
6664;DHT22;58749;48.022;10.922;2022-12-19T09:14:39;1.60;99.90
6664;DHT22;58749;48.022;10.922;2022-12-19T09:17:08;1.60;99.90
6664;DHT22;58749;48.022;10.922;2022-12-19T09:19:36;1.60;99.90
6664;DHT22;58749;48.022;10.922;2022-12-19T09:22:09;1.60;99.90
6664;DHT22;58749;48.022;10.922;2022-12-19T09:24:38;1.60;99.90
6664;DHT22;58749;48.022;10.922;2022-12-19T09:27:06;1.70;99.90
6664;DHT22;58749;48.022;10.922;2022-12-19T09:29:34;1.70;99.90
6664;DHT22;58749;48.022;10.922;2022-12-19T09:32:02;1.80;99.90
6664;DHT22;58749;48.022;10.922;2022-12-19T09:34:31;1.80;99.90
6664;DHT22;58749;48.022;10.922;2022-12-19T09:37:04;1.90;99.90
6664;DHT22;58749;48.022;10.922;2022-12-19T09:39:32;2.00;99.90
6664;DHT22;58749;48.022;10.922;2022-12-19T09:42:32;2.00;99.90
6664;DHT22;58749;48.022;10.922;2022-12-19T09:45:27;2.00;99.90
6664;DHT22;58749;48.022;10.922;2022-12-19T09:47:59;2.00;99.90
6664;DHT22;58749;48.022;10.922;2022-12-19T09:50:42;2.10;99.90
6664;DHT22;58749;48.022;10.922;2022-12-19T09:53:18;2.10;99.90
6664;DHT22;58749;48.022;10.922;2022-12-19T09:55:51;2.20;99.90
6664;DHT22;58749;48.022;10.922;2022-12-19T09:58:30;2.20;99.90
6664;DHT22;58749;48.022;10.922;2022-12-19T10:01:01;2.30;99.90
6664;DHT22;58749;48.022;10.922;2022-12-19T10:03:35;2.20;99.90
6664;DHT22;58749;48.022;10.922;2022-12-19T10:06:14;2.30;99.90
6664;DHT22;58749;48.022;10.922;2022-12-19T10:09:07;2.40;99.90
6664;DHT22;58749;48.022;10.922;2022-12-19T10:12:09;2.40;99.90
6664;DHT22;58749;48.022;10.922;2022-12-19T10:15:02;2.50;99.90
6664;DHT22;58749;48.022;10.922;2022-12-19T10:17:44;2.70;99.90
6664;DHT22;58749;48.022;10.922;2022-12-19T10:20:22;2.70;99.90
6664;DHT22;58749;48.022;10.922;2022-12-19T10:23:03;2.80;99.90
6664;DHT22;58749;48.022;10.922;2022-12-19T10:25:55;2.90;99.90
6664;DHT22;58749;48.022;10.922;2022-12-19T10:28:41;3.00;99.90
6664;DHT22;58749;48.022;10.922;2022-12-19T10:31:15;3.00;99.90
6664;DHT22;58749;48.022;10.922;2022-12-19T10:33:52;3.10;99.90
6664;DHT22;58749;48.022;10.922;2022-12-19T10:36:23;3.20;99.90
6664;DHT22;58749;48.022;10.922;2022-12-19T10:39:19;3.20;99.90
6664;DHT22;58749;48.022;10.922;2022-12-19T10:41:54;3.30;99.90
6664;DHT22;58749;48.022;10.922;2022-12-19T10:44:26;3.40;99.90
6664;DHT22;58749;48.022;10.922;2022-12-19T10:46:56;3.50;99.90
6664;DHT22;58749;48.022;10.922;2022-12-19T10:49:25;3.50;99.90
6664;DHT22;58749;48.022;10.922;2022-12-19T10:51:57;3.50;99.90
6664;DHT22;58749;48.022;10.922;2022-12-19T10:54:38;3.40;99.90
6664;DHT22;58749;48.022;10.922;2022-12-19T10:57:22;3.40;99.90
6664;DHT22;58749;48.022;10.922;2022-12-19T10:59:56;3.50;99.90
6664;DHT22;58749;48.022;10.922;2022-12-19T11:02:38;3.70;99.90
6664;DHT22;58749;48.022;10.922;2022-12-19T11:05:21;3.70;99.90
6664;DHT22;58749;48.022;10.922;2022-12-19T11:08:01;3.90;99.90
6664;DHT22;58749;48.022;10.922;2022-12-19T11:10:37;3.90;99.90
6664;DHT22;58749;48.022;10.922;2022-12-19T11:13:27;3.90;99.90
6664;DHT22;58749;48.022;10.922;2022-12-19T11:16:21;3.80;99.90
6664;DHT22;58749;48.022;10.922;2022-12-19T11:19:19;3.70;99.90
6664;DHT22;58749;48.022;10.922;2022-12-19T11:22:19;3.80;99.90
6664;DHT22;58749;48.022;10.922;2022-12-19T11:25:14;3.70;99.90
6664;DHT22;58749;48.022;10.922;2022-12-19T11:28:12;3.80;99.90
6664;DHT22;58749;48.022;10.922;2022-12-19T11:31:06;3.80;99.90
6664;DHT22;58749;48.022;10.922;2022-12-19T11:34:02;3.70;99.90
6664;DHT22;58749;48.022;10.922;2022-12-19T11:36:36;3.70;99.90
6664;DHT22;58749;48.022;10.922;2022-12-19T11:39:10;3.70;99.90
6664;DHT22;58749;48.022;10.922;2022-12-19T11:41:42;3.60;99.90
6664;DHT22;58749;48.022;10.922;2022-12-19T11:44:21;3.60;99.90
6664;DHT22;58749;48.022;10.922;2022-12-19T11:46:58;3.50;99.90
6664;DHT22;58749;48.022;10.922;2022-12-19T11:49:33;3.50;99.90
6664;DHT22;58749;48.022;10.922;2022-12-19T11:52:11;3.50;99.90
6664;DHT22;58749;48.022;10.922;2022-12-19T11:55:04;3.50;99.90
6664;DHT22;58749;48.022;10.922;2022-12-19T11:57:33;3.50;99.90
6664;DHT22;58749;48.022;10.922;2022-12-19T12:00:04;3.60;99.90
6664;DHT22;58749;48.022;10.922;2022-12-19T12:02:55;3.50;99.90
6664;DHT22;58749;48.022;10.922;2022-12-19T12:05:41;3.40;99.90
6664;DHT22;58749;48.022;10.922;2022-12-19T12:08:39;3.30;99.90
6664;DHT22;58749;48.022;10.922;2022-12-19T12:11:37;3.30;99.90
6664;DHT22;58749;48.022;10.922;2022-12-19T12:14:32;3.40;99.90
6664;DHT22;58749;48.022;10.922;2022-12-19T12:17:46;3.40;99.90
6664;DHT22;58749;48.022;10.922;2022-12-19T12:20:39;3.30;99.90
6664;DHT22;58749;48.022;10.922;2022-12-19T12:23:52;3.30;99.90
6664;DHT22;58749;48.022;10.922;2022-12-19T12:26:47;3.30;99.90
6664;DHT22;58749;48.022;10.922;2022-12-19T12:29:46;3.30;99.90
6664;DHT22;58749;48.022;10.922;2022-12-19T12:32:49;3.30;99.90
6664;DHT22;58749;48.022;10.922;2022-12-19T12:35:45;3.30;99.90
6664;DHT22;58749;48.022;10.922;2022-12-19T12:38:45;3.40;99.90
6664;DHT22;58749;48.022;10.922;2022-12-19T12:41:23;3.60;99.90
6664;DHT22;58749;48.022;10.922;2022-12-19T12:44:10;3.60;99.90
6664;DHT22;58749;48.022;10.922;2022-12-19T12:46:42;3.60;99.90
6664;DHT22;58749;48.022;10.922;2022-12-19T12:49:33;3.60;99.90
6664;DHT22;58749;48.022;10.922;2022-12-19T12:52:04;3.50;99.90
6664;DHT22;58749;48.022;10.922;2022-12-19T12:54:35;3.60;99.90
6664;DHT22;58749;48.022;10.922;2022-12-19T12:57:05;3.50;99.90
6664;DHT22;58749;48.022;10.922;2022-12-19T12:59:33;3.50;99.90
6664;DHT22;58749;48.022;10.922;2022-12-19T13:02:11;3.50;99.90
6664;DHT22;58749;48.022;10.922;2022-12-19T13:04:54;3.40;99.90
6664;DHT22;58749;48.022;10.922;2022-12-19T13:07:40;3.40;99.90
6664;DHT22;58749;48.022;10.922;2022-12-19T13:10:22;3.40;99.90
6664;DHT22;58749;48.022;10.922;2022-12-19T13:12:59;3.30;99.90
6664;DHT22;58749;48.022;10.922;2022-12-19T13:15:41;3.30;99.90
6664;DHT22;58749;48.022;10.922;2022-12-19T13:18:33;3.30;99.90
6664;DHT22;58749;48.022;10.922;2022-12-19T13:21:07;3.30;99.90
6664;DHT22;58749;48.022;10.922;2022-12-19T13:23:44;3.40;99.90
6664;DHT22;58749;48.022;10.922;2022-12-19T13:26:48;3.40;99.90
6664;DHT22;58749;48.022;10.922;2022-12-19T13:29:52;3.30;99.90
6664;DHT22;58749;48.022;10.922;2022-12-19T13:32:22;3.20;99.90
6664;DHT22;58749;48.022;10.922;2022-12-19T13:34:52;3.20;99.90
6664;DHT22;58749;48.022;10.922;2022-12-19T13:37:43;3.10;99.90
6664;DHT22;58749;48.022;10.922;2022-12-19T13:40:33;3.10;99.90
6664;DHT22;58749;48.022;10.922;2022-12-19T13:43:18;3.10;99.90
6664;DHT22;58749;48.022;10.922;2022-12-19T13:46:20;3.10;99.90
6664;DHT22;58749;48.022;10.922;2022-12-19T13:48:51;3.10;99.90
6664;DHT22;58749;48.022;10.922;2022-12-19T13:51:19;3.00;99.90
6664;DHT22;58749;48.022;10.922;2022-12-19T13:53:52;3.00;99.90
6664;DHT22;58749;48.022;10.922;2022-12-19T13:56:29;2.90;99.90
6664;DHT22;58749;48.022;10.922;2022-12-19T13:58:59;2.90;99.90
6664;DHT22;58749;48.022;10.922;2022-12-19T14:01:29;2.90;99.90
6664;DHT22;58749;48.022;10.922;2022-12-19T14:04:03;2.90;99.90
6664;DHT22;58749;48.022;10.922;2022-12-19T14:06:39;3.00;99.90
6664;DHT22;58749;48.022;10.922;2022-12-19T14:09:19;3.00;99.90
6664;DHT22;58749;48.022;10.922;2022-12-19T14:12:18;3.00;99.90
6664;DHT22;58749;48.022;10.922;2022-12-19T14:15:30;3.10;99.90
6664;DHT22;58749;48.022;10.922;2022-12-19T14:17:59;3.10;99.90
6664;DHT22;58749;48.022;10.922;2022-12-19T14:20:49;3.10;99.90
6664;DHT22;58749;48.022;10.922;2022-12-19T14:23:37;3.00;99.90
6664;DHT22;58749;48.022;10.922;2022-12-19T14:26:20;3.00;99.90
6664;DHT22;58749;48.022;10.922;2022-12-19T14:29:12;3.00;99.90
6664;DHT22;58749;48.022;10.922;2022-12-19T14:31:54;3.00;99.90
6664;DHT22;58749;48.022;10.922;2022-12-19T14:34:43;3.00;99.90
6664;DHT22;58749;48.022;10.922;2022-12-19T14:37:32;3.00;99.90
6664;DHT22;58749;48.022;10.922;2022-12-19T14:40:24;2.90;99.90
6664;DHT22;58749;48.022;10.922;2022-12-19T14:43:00;2.80;99.90
6664;DHT22;58749;48.022;10.922;2022-12-19T14:46:12;2.80;99.90
6664;DHT22;58749;48.022;10.922;2022-12-19T14:49:00;2.70;99.90
6664;DHT22;58749;48.022;10.922;2022-12-19T14:51:49;2.50;99.90
6664;DHT22;58749;48.022;10.922;2022-12-19T14:54:37;2.50;99.90
6664;DHT22;58749;48.022;10.922;2022-12-19T14:57:25;2.40;99.90
6664;DHT22;58749;48.022;10.922;2022-12-19T15:00:23;2.40;99.90
6664;DHT22;58749;48.022;10.922;2022-12-19T15:03:17;2.30;99.90
6664;DHT22;58749;48.022;10.922;2022-12-19T15:05:48;2.30;99.90
6664;DHT22;58749;48.022;10.922;2022-12-19T15:08:27;2.30;99.90
6664;DHT22;58749;48.022;10.922;2022-12-19T15:11:26;2.30;99.90
6664;DHT22;58749;48.022;10.922;2022-12-19T15:14:39;2.30;99.90
6664;DHT22;58749;48.022;10.922;2022-12-19T15:17:25;2.20;99.90
6664;DHT22;58749;48.022;10.922;2022-12-19T15:19:54;2.20;99.90
6664;DHT22;58749;48.022;10.922;2022-12-19T15:22:22;2.10;99.90
6664;DHT22;58749;48.022;10.922;2022-12-19T15:24:50;2.10;99.90
6664;DHT22;58749;48.022;10.922;2022-12-19T15:27:18;2.10;99.90
6664;DHT22;58749;48.022;10.922;2022-12-19T15:29:47;2.00;99.90
6664;DHT22;58749;48.022;10.922;2022-12-19T15:32:15;2.10;99.90
6664;DHT22;58749;48.022;10.922;2022-12-19T15:34:45;2.00;99.90
6664;DHT22;58749;48.022;10.922;2022-12-19T15:37:17;2.00;99.90
6664;DHT22;58749;48.022;10.922;2022-12-19T15:39:45;2.00;99.90
6664;DHT22;58749;48.022;10.922;2022-12-19T15:42:17;2.00;99.90
6664;DHT22;58749;48.022;10.922;2022-12-19T15:44:46;1.90;99.90
6664;DHT22;58749;48.022;10.922;2022-12-19T15:47:17;2.00;99.90
6664;DHT22;58749;48.022;10.922;2022-12-19T15:49:47;2.00;99.90
6664;DHT22;58749;48.022;10.922;2022-12-19T15:52:16;1.90;99.90
6664;DHT22;58749;48.022;10.922;2022-12-19T15:54:45;1.90;99.90
6664;DHT22;58749;48.022;10.922;2022-12-19T15:57:20;1.90;99.90
6664;DHT22;58749;48.022;10.922;2022-12-19T15:59:51;1.80;99.90
6664;DHT22;58749;48.022;10.922;2022-12-19T16:02:22;1.80;99.90
6664;DHT22;58749;48.022;10.922;2022-12-19T16:05:05;1.90;99.90
6664;DHT22;58749;48.022;10.922;2022-12-19T16:07:33;1.90;99.90
6664;DHT22;58749;48.022;10.922;2022-12-19T16:10:01;1.80;99.90
6664;DHT22;58749;48.022;10.922;2022-12-19T16:12:33;1.80;99.90
6664;DHT22;58749;48.022;10.922;2022-12-19T16:15:03;1.90;99.90
6664;DHT22;58749;48.022;10.922;2022-12-19T16:17:32;1.90;99.90
6664;DHT22;58749;48.022;10.922;2022-12-19T16:20:00;1.90;99.90
6664;DHT22;58749;48.022;10.922;2022-12-19T16:22:29;1.90;99.90
6664;DHT22;58749;48.022;10.922;2022-12-19T16:24:57;2.00;99.90
6664;DHT22;58749;48.022;10.922;2022-12-19T16:27:27;2.00;99.90
6664;DHT22;58749;48.022;10.922;2022-12-19T16:29:58;2.00;99.90
6664;DHT22;58749;48.022;10.922;2022-12-19T16:32:29;2.00;99.90
6664;DHT22;58749;48.022;10.922;2022-12-19T16:34:57;2.00;99.90
6664;DHT22;58749;48.022;10.922;2022-12-19T16:37:25;2.00;99.90